Meteo Giornale » Osservazioni meteo Brasile » Londrina Aeroporto
ore: 18:00 - Osservazioni Meteo Londrina Aeroporto
Lat. 23° 20' S Lon. 51° 8' W Alt. 569 metri s.l.m.
29 °C
Poco Nuvoloso
Temp. 24 Ore
19 °C
31 °C
Nord-Est
7.4 Km/h
Dew point 21 °C
Umidità 62 %
Visibilità 10 Km
Il sole sorge alle ore 06:35
Il sole tramonta alle ore 18:13
| Data e Ora | Cielo e Fenomeni | T °C | DP °C | Um. % | Pres. hPa | Vis. km | Vento km/h | |
|---|---|---|---|---|---|---|---|---|
| Oggi h: 18:00 | Poco Nuvoloso | 29 | 21 | 62 | 1007 | 10 | NE 7.4 | |
| Oggi h: 17:00 | Poco Nuvoloso | 30 | 21 | 58 | 1007 | 10 | N/NE 14.8 | |
| Oggi h: 16:00 | Nuvoloso | 31 | 20 | 52 | 1007 | 10 | N/NE 18.5 | |
| Oggi h: 15:00 | Poco Nuvoloso | 31 | 20 | 52 | 1008 | 10 | N/NE 16.7 | |
| Oggi h: 14:00 | Sereno | 30 | 20 | 55 | 1010 | 10 | N/NE 13 | |
| Oggi h: 13:00 | Sereno | 29 | 20 | 58 | 1011 | 10 | N/NE 9.3 | |
| Oggi h: 12:00 | Nuvoloso | 27 | 19 | 61 | 1012 | 10 | N/NE 11.1 | |
| Oggi h: 11:00 | Nuvoloso | 24 | 19 | 73 | 1013 | 10 | E 9.3 | |
| Oggi h: 10:00 | Nuvoloso | 23 | 18 | 73 | 1013 | 10 | E 11.1 | |
| Oggi h: 09:00 | Nuvoloso | 22 | 18 | 78 | 1013 | 10 | E/SE 11.1 | |
| Oggi h: 08:00 | Poco Nuvoloso | 20 | 18 | 88 | 1012 | 10 | E 13 | |
| Oggi h: 07:00 | Poco Nuvoloso | 19 | 18 | 93 | 1012 | 10 | E 11.1 | |
| Oggi h: 06:00 | Sereno | 19 | 17 | 88 | 1012 | 10 | E/SE 9.3 | |
| Oggi h: 05:00 | Sereno | 19 | 17 | 88 | 1012 | 10 | N 5.5 | |
| Oggi h: 04:00 | Sereno | 19 | 18 | 93 | 1013 | 10 | N 5.5 | |
| Oggi h: 03:00 | Sereno | 19 | 18 | 93 | 1013 | 10 | N 5.5 | |
| Oggi h: 02:00 | Sereno | 20 | 18 | 88 | 1014 | 10 | E 11.1 | |
| Oggi h: 01:00 | Poco Nuvoloso | 21 | 19 | 88 | 1014 | 10 | NE 13 | |
| Oggi h: 00:00 | Poco Nuvoloso | 22 | 19 | 83 | 1014 | 10 | S/SE 9.3 | |
| Ieri h: 23:00 | Nuvoloso | 22 | 19 | 83 | 1014 | 10 | SE 13 | |
| Ieri h: 22:00 | Nuvoloso | 24 | 19 | 73 | 1014 | 10 | SE 14.8 | |
| Ieri h: 21:43 | Sereno | 24 | 19 | 73 | 1013 | 10 | SE 16.7 | |
| Ieri h: 21:00 | Temporale | 26 | 20 | 69 | 1012 | 10 | SE 18.5 | |
| Ieri h: 20:22 | Temporale nelle vicinanze | 29 | 20 | 58 | 1012 | 10 | O/NO 11.1 | |
| Ieri h: 20:00 | Sereno | 29 | 19 | 54 | 1011 | 10 | N/NE 9.3 | |
| Ieri h: 19:00 | Sereno | 29 | 20 | 58 | 1011 | 10 | N 7.4 | |



